Time;durP1;ratioP1;P1;durP2;ratioP2;P2;SDS_P1;SDS_P2;PMS_P1;PMS_P2;Temp;Humidity;BMP_temperature;BMP_pressure;BME280_temperature;BME280_humidity;BME280_pressure;Samples;Min_cycle;Max_cycle;Signal;HPM_P1;HPM_P2
2021/04/22 00:00:28;;;;;;;16.08;9.48;;;;;;;;;;5017528;28;20384;-81
2021/04/22 00:02:54;;;;;;;18.85;10.60;;;;;;;;;;5009605;28;20080;-78
2021/04/22 00:05:21;;;;;;;15.05;8.90;;;;;;;;;;5010754;28;20068;-82
2021/04/22 00:07:50;;;;;;;16.27;8.85;;;;;;;;;;5015375;28;20049;-79
2021/04/22 00:10:17;;;;;;;14.90;9.05;;;;;;;;;;4996999;28;20466;-81
2021/04/22 00:12:42;;;;;;;17.83;8.63;;;;;;;;;;5008644;28;20030;-80
2021/04/22 00:15:15;;;;;;;15.75;8.50;;;;;;;;;;5002898;28;20496;-80
2021/04/22 00:17:40;;;;;;;15.05;8.20;;;;;;;;;;5008574;28;20018;-79
2021/04/22 00:20:06;;;;;;;15.45;8.68;;;;;;;;;;5014581;28;20021;-80
2021/04/22 00:22:32;;;;;;;15.20;9.07;;;;;;;;;;5015150;28;20014;-79
2021/04/22 00:24:57;;;;;;;13.65;9.25;;;;;;;;;;5014871;28;20037;-79
2021/04/22 00:27:22;;;;;;;15.48;9.25;;;;;;;;;;5011342;28;20033;-80
2021/04/22 00:29:48;;;;;;;15.23;8.38;;;;;;;;;;5015169;28;20496;-79
2021/04/22 00:32:15;;;;;;;14.73;9.52;;;;;;;;;;5011699;28;20030;-79
2021/04/22 00:34:40;;;;;;;14.40;9.55;;;;;;;;;;5011454;28;20092;-79
2021/04/22 00:37:05;;;;;;;13.60;7.93;;;;;;;;;;4999631;28;20405;-80
2021/04/22 00:39:30;;;;;;;14.70;9.55;;;;;;;;;;5016781;28;20101;-79
2021/04/22 00:41:55;;;;;;;17.98;9.60;;;;;;;;;;5018055;28;20476;-79
2021/04/22 00:44:22;;;;;;;14.55;9.07;;;;;;;;;;5009708;28;20099;-79
2021/04/22 00:46:47;;;;;;;14.15;8.73;;;;;;;;;;5015202;28;20091;-80
2021/04/22 00:49:12;;;;;;;15.55;9.20;;;;;;;;;;5013314;28;20037;-80
2021/04/22 00:51:38;;;;;;;15.75;9.43;;;;;;;;;;5010911;28;20112;-79
2021/04/22 00:54:03;;;;;;;14.95;8.85;;;;;;;;;;5021132;28;20472;-79
2021/04/22 00:56:29;;;;;;;13.10;8.73;;;;;;;;;;5008773;28;20111;-80
2021/04/22 00:58:54;;;;;;;15.18;8.13;;;;;;;;;;4996980;28;20140;-79
2021/04/22 01:01:19;;;;;;;13.85;8.57;;;;;;;;;;5019904;28;20033;-81
2021/04/22 01:03:45;;;;;;;15.65;8.88;;;;;;;;;;5019580;28;20477;-79
2021/04/22 01:06:11;;;;;;;17.25;9.32;;;;;;;;;;5012392;28;20091;-79
2021/04/22 01:08:37;;;;;;;14.73;9.00;;;;;;;;;;5008601;28;20030;-79
2021/04/22 01:11:03;;;;;;;14.00;8.57;;;;;;;;;;5017223;28;20036;-78
2021/04/22 01:13:28;;;;;;;16.13;8.77;;;;;;;;;;5020262;28;20032;-77
2021/04/22 01:15:54;;;;;;;16.33;8.98;;;;;;;;;;5018870;28;20029;-80
2021/04/22 01:18:19;;;;;;;14.35;9.00;;;;;;;;;;5012100;28;20103;-81
2021/04/22 01:20:45;;;;;;;15.88;9.57;;;;;;;;;;5011735;28;20044;-78
2021/04/22 01:23:11;;;;;;;16.63;10.02;;;;;;;;;;5019719;28;20036;-79
2021/04/22 01:25:41;;;;;;;16.42;9.55;;;;;;;;;;5011707;28;20104;-78
2021/04/22 01:28:08;;;;;;;13.20;9.13;;;;;;;;;;5013021;28;20038;-79
2021/04/22 01:30:35;;;;;;;14.00;9.15;;;;;;;;;;5006161;28;20036;-78
2021/04/22 01:33:01;;;;;;;15.52;8.68;;;;;;;;;;4987653;28;20080;-79
2021/04/22 01:35:29;;;;;;;15.50;9.18;;;;;;;;;;5018292;28;20428;-79
2021/04/22 01:37:55;;;;;;;15.45;8.95;;;;;;;;;;5009961;28;20058;-78
2021/04/22 01:40:21;;;;;;;9.43;6.78;;;;;;;;;;5016479;28;20033;-79
2021/04/22 01:42:46;;;;;;;8.95;5.50;;;;;;;;;;5012266;28;20022;-80
2021/04/22 01:45:11;;;;;;;9.13;6.07;;;;;;;;;;4993954;28;20373;-79
2021/04/22 01:47:37;;;;;;;11.27;7.00;;;;;;;;;;5020636;28;20551;-78
2021/04/22 01:50:04;;;;;;;9.73;6.18;;;;;;;;;;5011304;28;20597;-80
2021/04/22 01:52:29;;;;;;;9.35;6.40;;;;;;;;;;5024647;28;20029;-78
2021/04/22 01:54:56;;;;;;;7.80;5.00;;;;;;;;;;5014816;28;20026;-78
2021/04/22 01:57:21;;;;;;;8.88;5.22;;;;;;;;;;5018494;28;20022;-78
2021/04/22 01:59:46;;;;;;;8.10;4.72;;;;;;;;;;5014271;28;20037;-78
2021/04/22 02:02:11;;;;;;;7.53;4.85;;;;;;;;;;5010194;28;20095;-78
2021/04/22 02:04:37;;;;;;;7.75;4.47;;;;;;;;;;5007444;28;20548;-80
2021/04/22 02:07:02;;;;;;;7.95;4.97;;;;;;;;;;5008299;28;20393;-79
2021/04/22 02:09:27;;;;;;;7.10;4.28;;;;;;;;;;5017317;28;20115;-78
2021/04/22 02:11:53;;;;;;;8.45;4.90;;;;;;;;;;5006248;28;20040;-79
2021/04/22 02:14:18;;;;;;;8.48;5.32;;;;;;;;;;5031926;28;20041;-79
2021/04/22 02:16:44;;;;;;;7.40;4.53;;;;;;;;;;5038423;28;20031;-80
2021/04/22 02:19:10;;;;;;;8.02;4.88;;;;;;;;;;5020301;28;20215;-78
2021/04/22 02:21:35;;;;;;;7.60;5.07;;;;;;;;;;5016608;28;20026;-78
2021/04/22 02:24:01;;;;;;;7.28;4.82;;;;;;;;;;5019946;28;20087;-78
2021/04/22 02:26:26;;;;;;;8.30;5.25;;;;;;;;;;5018647;28;20044;-79
2021/04/22 02:28:51;;;;;;;7.60;4.82;;;;;;;;;;4994516;28;20204;-78
2021/04/22 02:31:17;;;;;;;8.23;4.80;;;;;;;;;;5013416;28;20028;-77
2021/04/22 02:33:42;;;;;;;8.98;5.40;;;;;;;;;;5020217;28;20150;-77
2021/04/22 02:36:08;;;;;;;10.25;5.10;;;;;;;;;;5014297;28;20493;-79
2021/04/22 02:38:33;;;;;;;8.23;5.43;;;;;;;;;;5016983;28;20110;-79
2021/04/22 02:40:58;;;;;;;9.32;5.65;;;;;;;;;;5021958;28;20505;-80
2021/04/22 02:43:23;;;;;;;9.05;5.78;;;;;;;;;;5004162;28;20034;-79
2021/04/22 02:45:50;;;;;;;8.13;5.63;;;;;;;;;;5012891;28;20029;-80
2021/04/22 02:48:15;;;;;;;11.27;5.80;;;;;;;;;;5013550;28;20032;-79
2021/04/22 02:50:43;;;;;;;10.63;6.20;;;;;;;;;;5019579;28;20104;-81
2021/04/22 02:53:08;;;;;;;10.25;6.15;;;;;;;;;;5015670;28;20041;-80
2021/04/22 02:55:34;;;;;;;10.10;6.25;;;;;;;;;;5012513;28;20025;-79
2021/04/22 02:57:59;;;;;;;9.57;5.65;;;;;;;;;;5014688;28;20056;-81
2021/04/22 03:00:24;;;;;;;10.90;6.47;;;;;;;;;;5013877;28;20049;-80
2021/04/22 03:02:49;;;;;;;12.70;6.75;;;;;;;;;;5015311;28;20029;-80
2021/04/22 03:05:16;;;;;;;9.65;6.68;;;;;;;;;;4995356;28;20026;-81
2021/04/22 03:07:41;;;;;;;10.63;7.32;;;;;;;;;;4995096;28;20033;-78
2021/04/22 03:10:08;;;;;;;10.63;6.45;;;;;;;;;;5008534;28;20029;-80
2021/04/22 03:12:33;;;;;;;11.85;7.32;;;;;;;;;;5014923;28;20075;-79
2021/04/22 03:14:59;;;;;;;14.43;7.68;;;;;;;;;;5009400;28;20014;-78
2021/04/22 03:17:24;;;;;;;9.43;6.45;;;;;;;;;;5023006;28;20022;-79
2021/04/22 03:19:49;;;;;;;10.77;6.50;;;;;;;;;;5017809;28;20041;-78
2021/04/22 03:22:14;;;;;;;11.30;7.63;;;;;;;;;;5017841;28;20021;-82
2021/04/22 03:24:41;;;;;;;10.43;7.03;;;;;;;;;;5007640;28;20026;-78
2021/04/22 03:27:06;;;;;;;12.73;7.40;;;;;;;;;;5019247;28;20110;-79
2021/04/22 03:29:31;;;;;;;12.02;8.05;;;;;;;;;;5010894;28;20018;-80
2021/04/22 03:31:56;;;;;;;15.55;8.50;;;;;;;;;;5009419;28;20466;-78
2021/04/22 03:34:21;;;;;;;15.32;8.85;;;;;;;;;;5011206;28;20099;-78
2021/04/22 03:36:47;;;;;;;14.20;9.02;;;;;;;;;;5012161;28;20057;-80
2021/04/22 03:39:12;;;;;;;14.80;8.82;;;;;;;;;;5016725;28;20078;-78
2021/04/22 03:41:37;;;;;;;14.20;9.27;;;;;;;;;;4992448;28;20071;-79
2021/04/22 03:44:02;;;;;;;14.45;9.13;;;;;;;;;;5009918;28;20041;-78
2021/04/22 03:46:29;;;;;;;15.40;9.30;;;;;;;;;;5008834;28;20860;-79
2021/04/22 03:48:54;;;;;;;16.67;10.50;;;;;;;;;;4995599;28;20112;-79
2021/04/22 03:51:19;;;;;;;16.92;10.60;;;;;;;;;;5013939;28;20112;-79
2021/04/22 03:53:45;;;;;;;16.83;10.30;;;;;;;;;;5012511;28;20018;-78
2021/04/22 03:56:10;;;;;;;18.00;11.25;;;;;;;;;;4988170;28;20038;-79
2021/04/22 03:58:35;;;;;;;18.17;11.00;;;;;;;;;;5015658;28;20021;-78
2021/04/22 04:01:01;;;;;;;19.25;10.55;;;;;;;;;;5008136;28;20034;-79
2021/04/22 04:03:26;;;;;;;18.13;11.13;;;;;;;;;;5009716;28;20026;-78
2021/04/22 04:05:52;;;;;;;20.30;10.77;;;;;;;;;;5009424;28;20034;-78
2021/04/22 04:08:17;;;;;;;20.48;11.07;;;;;;;;;;5010258;28;20769;-78
2021/04/22 04:10:42;;;;;;;19.77;10.88;;;;;;;;;;4998162;28;20034;-78
2021/04/22 04:13:07;;;;;;;18.30;11.00;;;;;;;;;;5015014;28;20040;-79
2021/04/22 04:15:33;;;;;;;19.48;11.38;;;;;;;;;;5012813;28;20014;-77
2021/04/22 04:17:58;;;;;;;19.08;11.35;;;;;;;;;;5013850;28;20062;-79
2021/04/22 04:20:24;;;;;;;18.77;10.48;;;;;;;;;;5014986;28;20405;-78
2021/04/22 04:22:49;;;;;;;15.85;10.55;;;;;;;;;;5012637;28;20048;-79
2021/04/22 04:25:14;;;;;;;18.65;11.23;;;;;;;;;;5017315;28;20468;-79
2021/04/22 04:27:40;;;;;;;17.70;10.50;;;;;;;;;;5016742;28;20096;-79
2021/04/22 04:30:06;;;;;;;23.42;12.50;;;;;;;;;;5001413;28;20408;-79
2021/04/22 04:32:31;;;;;;;18.85;11.30;;;;;;;;;;5015024;28;20041;-79
2021/04/22 04:34:56;;;;;;;20.63;10.93;;;;;;;;;;5018328;28;20026;-80
2021/04/22 04:37:22;;;;;;;19.45;11.07;;;;;;;;;;5017205;28;20049;-80
2021/04/22 04:39:48;;;;;;;19.88;11.65;;;;;;;;;;5018436;28;20100;-87
2021/04/22 04:42:13;;;;;;;20.20;11.45;;;;;;;;;;5022197;28;20061;-80
2021/04/22 04:44:38;;;;;;;21.40;11.60;;;;;;;;;;5029044;28;20397;-80
2021/04/22 04:47:03;;;;;;;23.85;12.57;;;;;;;;;;5019278;28;20122;-81
2021/04/22 04:49:29;;;;;;;21.27;11.95;;;;;;;;;;5018155;28;20018;-80
2021/04/22 04:51:54;;;;;;;18.55;11.52;;;;;;;;;;5025035;28;20525;-80
2021/04/22 04:54:19;;;;;;;20.05;11.43;;;;;;;;;;5020719;28;20105;-80
2021/04/22 04:56:44;;;;;;;21.48;12.38;;;;;;;;;;5015472;28;20385;-80
2021/04/22 04:59:10;;;;;;;20.33;11.52;;;;;;;;;;5014999;28;20045;-79
2021/04/22 05:01:35;;;;;;;23.27;12.25;;;;;;;;;;5017613;28;20535;-80
2021/04/22 05:04:00;;;;;;;19.23;11.10;;;;;;;;;;5010920;28;20030;-80
2021/04/22 05:06:25;;;;;;;21.05;11.43;;;;;;;;;;5012844;28;20068;-79
2021/04/22 05:08:51;;;;;;;19.02;10.93;;;;;;;;;;5019746;28;20405;-80
2021/04/22 05:11:16;;;;;;;20.33;11.35;;;;;;;;;;5020144;28;20035;-81
2021/04/22 05:13:41;;;;;;;17.77;10.43;;;;;;;;;;5025712;28;20018;-79
2021/04/22 05:16:06;;;;;;;22.17;12.35;;;;;;;;;;5014425;28;20021;-79
2021/04/22 05:18:32;;;;;;;23.83;12.68;;;;;;;;;;5017165;28;20717;-84
2021/04/22 05:20:57;;;;;;;19.25;11.10;;;;;;;;;;4998998;28;20384;-84
2021/04/22 05:23:22;;;;;;;20.58;11.13;;;;;;;;;;5023843;28;20026;-84
2021/04/22 05:25:48;;;;;;;21.75;11.90;;;;;;;;;;5005699;28;20109;-83
2021/04/22 05:28:14;;;;;;;21.00;11.05;;;;;;;;;;5007562;28;20030;-85
2021/04/22 05:30:41;;;;;;;20.67;11.80;;;;;;;;;;4994489;28;20025;-81
2021/04/22 05:33:06;;;;;;;18.48;11.10;;;;;;;;;;5001376;28;20038;-81
2021/04/22 05:35:31;;;;;;;17.88;10.68;;;;;;;;;;5000065;28;20022;-80
2021/04/22 05:37:57;;;;;;;18.20;10.75;;;;;;;;;;5013688;28;20390;-80
2021/04/22 05:40:22;;;;;;;20.95;11.93;;;;;;;;;;5018956;28;20125;-81
2021/04/22 05:42:47;;;;;;;23.48;12.82;;;;;;;;;;5011485;28;20022;-81
2021/04/22 05:45:14;;;;;;;21.30;12.05;;;;;;;;;;4993980;28;20050;-81
2021/04/22 05:47:39;;;;;;;19.88;11.95;;;;;;;;;;5017004;28;20009;-81
2021/04/22 05:50:04;;;;;;;19.92;12.40;;;;;;;;;;5025944;28;20072;-80
2021/04/22 05:52:30;;;;;;;20.20;11.55;;;;;;;;;;5020643;28;20025;-80
2021/04/22 05:54:55;;;;;;;18.98;10.80;;;;;;;;;;5012241;28;20025;-81
2021/04/22 05:57:20;;;;;;;20.77;11.68;;;;;;;;;;5011832;28;20032;-81
2021/04/22 05:59:45;;;;;;;17.92;11.93;;;;;;;;;;5015358;28;20038;-81
2021/04/22 06:02:10;;;;;;;21.40;11.60;;;;;;;;;;5018782;28;20025;-82
2021/04/22 06:04:35;;;;;;;19.40;12.73;;;;;;;;;;5025697;28;20034;-82
2021/04/22 06:07:01;;;;;;;19.58;11.27;;;;;;;;;;5041643;28;20089;-81
2021/04/22 06:09:26;;;;;;;17.92;11.60;;;;;;;;;;5042024;28;20081;-80
2021/04/22 06:11:51;;;;;;;17.70;11.18;;;;;;;;;;5011006;28;20692;-81
2021/04/22 06:14:17;;;;;;;19.60;11.55;;;;;;;;;;5018122;28;20224;-81
2021/04/22 06:16:42;;;;;;;17.65;9.98;;;;;;;;;;5015310;28;20040;-81
2021/04/22 06:19:07;;;;;;;17.65;9.93;;;;;;;;;;5013655;28;20167;-82
2021/04/22 06:21:32;;;;;;;15.77;10.27;;;;;;;;;;5025267;28;20488;-80
2021/04/22 06:23:58;;;;;;;17.35;10.48;;;;;;;;;;5019084;28;20484;-81
2021/04/22 06:26:23;;;;;;;23.33;9.80;;;;;;;;;;5006119;28;20061;-82
2021/04/22 06:28:52;;;;;;;15.50;9.75;;;;;;;;;;5021889;28;20076;-81
2021/04/22 06:31:17;;;;;;;16.88;9.73;;;;;;;;;;5016837;28;20423;-78
2021/04/22 06:33:42;;;;;;;16.75;9.50;;;;;;;;;;5022546;28;20025;-78
2021/04/22 06:36:07;;;;;;;16.42;10.75;;;;;;;;;;5016371;28;20101;-77
2021/04/22 06:38:33;;;;;;;15.68;9.30;;;;;;;;;;4999401;28;20408;-78
2021/04/22 06:40:58;;;;;;;15.88;9.90;;;;;;;;;;5010906;28;20025;-78
2021/04/22 06:43:23;;;;;;;16.27;10.18;;;;;;;;;;4994888;28;20385;-78
2021/04/22 06:45:48;;;;;;;15.65;9.75;;;;;;;;;;5021741;28;20033;-78
2021/04/22 06:48:15;;;;;;;18.35;10.82;;;;;;;;;;5015133;28;20026;-79
2021/04/22 06:50:41;;;;;;;19.35;10.70;;;;;;;;;;5015760;28;20026;-77
2021/04/22 06:53:06;;;;;;;16.23;11.45;;;;;;;;;;5024728;28;20024;-78
2021/04/22 06:55:32;;;;;;;18.10;10.10;;;;;;;;;;5016807;28;20037;-77
2021/04/22 06:57:58;;;;;;;17.60;11.32;;;;;;;;;;5022370;28;20029;-78
2021/04/22 07:00:24;;;;;;;19.50;12.00;;;;;;;;;;5038965;28;20052;-77
2021/04/22 07:02:50;;;;;;;20.15;11.68;;;;;;;;;;5023161;28;20062;-77
2021/04/22 07:05:16;;;;;;;18.90;11.15;;;;;;;;;;5011919;28;20036;-79
2021/04/22 07:07:41;;;;;;;19.88;10.88;;;;;;;;;;5008589;28;20030;-77
2021/04/22 07:10:07;;;;;;;17.88;11.55;;;;;;;;;;5016014;28;20535;-77
2021/04/22 07:12:32;;;;;;;20.88;12.30;;;;;;;;;;5022566;28;20022;-78
2021/04/22 07:14:58;;;;;;;22.25;12.85;;;;;;;;;;5009054;28;20136;-78
2021/04/22 07:17:23;;;;;;;20.88;12.73;;;;;;;;;;5010205;28;20030;-78
2021/04/22 07:19:49;;;;;;;19.05;11.73;;;;;;;;;;5011280;28;20026;-79
2021/04/22 07:22:14;;;;;;;21.40;12.75;;;;;;;;;;5022234;28;20027;-76
2021/04/22 07:24:41;;;;;;;20.60;12.07;;;;;;;;;;5014365;28;20029;-78
2021/04/22 07:27:06;;;;;;;21.65;12.52;;;;;;;;;;5020552;28;20037;-78
2021/04/22 07:29:32;;;;;;;24.40;13.93;;;;;;;;;;5029707;28;20030;-79
2021/04/22 07:31:57;;;;;;;18.98;11.70;;;;;;;;;;5016684;28;20362;-78
2021/04/22 07:34:23;;;;;;;18.58;11.73;;;;;;;;;;5029056;28;20109;-78
2021/04/22 07:36:48;;;;;;;18.98;11.45;;;;;;;;;;5021821;28;20489;-78
2021/04/22 07:39:13;;;;;;;20.88;11.38;;;;;;;;;;5010987;28;20484;-77
2021/04/22 07:41:38;;;;;;;19.08;11.50;;;;;;;;;;5010677;28;20576;-81
2021/04/22 07:44:04;;;;;;;19.10;12.05;;;;;;;;;;5010402;28;20420;-79
2021/04/22 07:46:29;;;;;;;18.45;12.35;;;;;;;;;;5016825;28;20485;-79
2021/04/22 07:48:54;;;;;;;19.50;11.60;;;;;;;;;;5011156;28;20098;-78
2021/04/22 07:51:20;;;;;;;17.52;11.27;;;;;;;;;;5011589;28;20481;-79
2021/04/22 07:53:45;;;;;;;18.98;12.10;;;;;;;;;;4998675;28;20399;-78
2021/04/22 07:56:10;;;;;;;17.73;12.02;;;;;;;;;;5011983;28;20014;-79
2021/04/22 07:58:35;;;;;;;18.80;12.43;;;;;;;;;;5022239;28;20017;-76
2021/04/22 08:01:00;;;;;;;19.38;12.13;;;;;;;;;;5026467;28;20014;-78
2021/04/22 08:03:26;;;;;;;20.27;12.18;;;;;;;;;;5010105;28;20041;-79
2021/04/22 08:05:55;;;;;;;19.05;11.32;;;;;;;;;;5026538;28;20017;-77
2021/04/22 08:08:21;;;;;;;20.88;12.43;;;;;;;;;;5012105;28;20026;-77
2021/04/22 08:10:47;;;;;;;18.67;12.20;;;;;;;;;;5010272;28;20081;-79
2021/04/22 08:13:13;;;;;;;22.88;12.15;;;;;;;;;;5010405;28;20113;-78
2021/04/22 08:15:39;;;;;;;23.30;13.25;;;;;;;;;;5010111;28;20057;-78
2021/04/22 08:18:05;;;;;;;19.52;12.52;;;;;;;;;;5007841;28;20124;-78
2021/04/22 08:20:30;;;;;;;20.85;13.10;;;;;;;;;;5016369;28;20108;-79
2021/04/22 08:22:57;;;;;;;22.50;14.60;;;;;;;;;;5016832;28;20017;-78
2021/04/22 08:25:25;;;;;;;21.13;13.85;;;;;;;;;;5011582;28;20084;-78
2021/04/22 08:27:52;;;;;;;22.95;13.60;;;;;;;;;;5029096;28;20044;-79
2021/04/22 08:30:19;;;;;;;21.45;12.77;;;;;;;;;;5025621;28;20088;-78
2021/04/22 08:32:44;;;;;;;21.67;13.60;;;;;;;;;;5021169;28;20026;-79
2021/04/22 08:35:10;;;;;;;24.35;12.63;;;;;;;;;;5017196;28;20487;-78
2021/04/22 08:37:36;;;;;;;20.73;12.77;;;;;;;;;;5028493;28;20045;-78
2021/04/22 08:40:04;;;;;;;18.67;11.75;;;;;;;;;;5022587;28;20096;-78
2021/04/22 08:42:30;;;;;;;19.77;12.13;;;;;;;;;;5016024;28;20024;-79
2021/04/22 08:44:55;;;;;;;18.05;11.65;;;;;;;;;;5016256;28;20120;-79
2021/04/22 08:47:21;;;;;;;19.17;11.70;;;;;;;;;;5022557;28;20034;-78
2021/04/22 08:49:46;;;;;;;19.73;11.60;;;;;;;;;;5015990;28;20048;-78
2021/04/22 08:52:11;;;;;;;21.95;12.57;;;;;;;;;;5021801;28;20036;-79
2021/04/22 08:54:36;;;;;;;23.15;12.90;;;;;;;;;;5028299;28;20124;-78
2021/04/22 08:57:02;;;;;;;18.73;11.63;;;;;;;;;;5017872;28;20037;-78
2021/04/22 08:59:27;;;;;;;19.98;12.15;;;;;;;;;;5009660;28;20457;-77
2021/04/22 09:01:52;;;;;;;20.23;12.10;;;;;;;;;;5014394;28;20028;-79
2021/04/22 09:04:18;;;;;;;22.13;12.35;;;;;;;;;;5025773;28;20017;-77
2021/04/22 09:06:43;;;;;;;19.70;13.00;;;;;;;;;;5027214;28;20037;-77
2021/04/22 09:09:09;;;;;;;19.50;11.10;;;;;;;;;;5011674;28;20017;-78
2021/04/22 09:11:44;;;;;;;23.13;13.38;;;;;;;;;;5011919;28;20029;-78
2021/04/22 09:14:11;;;;;;;19.10;12.55;;;;;;;;;;5012740;28;20025;-77
2021/04/22 09:16:36;;;;;;;21.98;14.00;;;;;;;;;;5025394;28;20020;-79
2021/04/22 09:19:07;;;;;;;20.52;15.07;;;;;;;;;;5011602;28;20443;-78
2021/04/22 09:21:34;;;;;;;21.98;12.48;;;;;;;;;;5015934;28;20025;-78
2021/04/22 09:24:08;;;;;;;19.20;12.18;;;;;;;;;;5026475;28;20036;-78
2021/04/22 09:26:36;;;;;;;18.60;12.65;;;;;;;;;;5019536;28;20029;-78
2021/04/22 09:29:02;;;;;;;20.92;14.02;;;;;;;;;;5015871;28;20029;-80
2021/04/22 09:31:29;;;;;;;21.75;13.00;;;;;;;;;;5039124;28;20029;-79
2021/04/22 09:34:06;;;;;;;18.33;12.15;;;;;;;;;;5022213;28;20083;-77
2021/04/22 09:36:45;;;;;;;20.10;12.75;;;;;;;;;;4994588;28;20038;-78
2021/04/22 09:39:11;;;;;;;20.90;13.38;;;;;;;;;;5006516;28;20018;-78
2021/04/22 09:41:37;;;;;;;23.73;14.25;;;;;;;;;;5018960;28;20469;-78
2021/04/22 09:44:12;;;;;;;20.83;13.27;;;;;;;;;;5031490;28;20129;-78
2021/04/22 09:46:43;;;;;;;20.42;13.20;;;;;;;;;;5015588;28;20053;-78
2021/04/22 09:49:15;;;;;;;23.23;13.77;;;;;;;;;;5026248;28;20021;-79
2021/04/22 09:51:42;;;;;;;22.13;14.75;;;;;;;;;;5025101;28;20014;-76
2021/04/22 09:54:13;;;;;;;19.48;13.70;;;;;;;;;;5014629;28;20378;-79
2021/04/22 09:56:46;;;;;;;21.95;13.65;;;;;;;;;;5032006;28;20030;-77
2021/04/22 09:59:16;;;;;;;23.45;15.25;;;;;;;;;;5031930;28;20018;-76
2021/04/22 10:01:41;;;;;;;19.50;13.73;;;;;;;;;;5029244;28;20060;-77
2021/04/22 10:04:07;;;;;;;23.38;15.70;;;;;;;;;;5027629;28;20017;-77
2021/04/22 10:06:39;;;;;;;19.25;14.20;;;;;;;;;;5016530;28;20037;-79
2021/04/22 10:09:05;;;;;;;21.88;13.85;;;;;;;;;;5029697;28;20026;-80
2021/04/22 10:11:39;;;;;;;19.30;13.70;;;;;;;;;;5020485;28;20026;-79
2021/04/22 10:14:04;;;;;;;22.23;13.50;;;;;;;;;;5014251;28;20010;-78
2021/04/22 10:16:34;;;;;;;21.23;13.25;;;;;;;;;;5013367;28;20365;-79
2021/04/22 10:18:59;;;;;;;20.52;13.98;;;;;;;;;;5012667;28;20556;-76
2021/04/22 10:21:26;;;;;;;22.00;14.32;;;;;;;;;;5015576;28;20057;-79
2021/04/22 10:24:00;;;;;;;22.27;14.35;;;;;;;;;;5032040;28;20021;-81
2021/04/22 10:26:26;;;;;;;29.02;20.20;;;;;;;;;;4996939;28;20041;-78
2021/04/22 10:28:51;;;;;;;22.77;15.73;;;;;;;;;;5012208;28;20103;-77
2021/04/22 10:31:16;;;;;;;24.27;17.52;;;;;;;;;;4995418;28;20037;-79
2021/04/22 10:33:42;;;;;;;25.35;17.33;;;;;;;;;;5024182;28;20033;-78
2021/04/22 10:36:07;;;;;;;22.75;15.57;;;;;;;;;;5021053;28;20485;-78
2021/04/22 10:38:33;;;;;;;22.92;15.80;;;;;;;;;;5011125;28;20022;-78
2021/04/22 10:40:58;;;;;;;28.80;20.05;;;;;;;;;;5018266;28;20025;-77
2021/04/22 10:43:25;;;;;;;23.60;16.00;;;;;;;;;;5011364;28;20033;-77
2021/04/22 10:45:52;;;;;;;24.33;16.52;;;;;;;;;;5011735;28;20018;-79
2021/04/22 10:48:17;;;;;;;28.40;18.83;;;;;;;;;;5018269;28;20132;-76
2021/04/22 10:50:44;;;;;;;22.58;15.15;;;;;;;;;;5024104;28;20055;-79
2021/04/22 10:53:19;;;;;;;22.15;16.50;;;;;;;;;;5010403;28;20029;-78
2021/04/22 10:55:45;;;;;;;25.05;16.77;;;;;;;;;;5010987;28;20014;-78
2021/04/22 10:58:19;;;;;;;27.20;19.63;;;;;;;;;;5017750;28;20032;-77
2021/04/22 11:00:50;;;;;;;28.83;20.55;;;;;;;;;;5022151;28;20072;-76
2021/04/22 11:03:22;;;;;;;23.98;17.10;;;;;;;;;;4993579;28;20049;-77
2021/04/22 11:05:52;;;;;;;25.85;16.42;;;;;;;;;;5026325;28;20021;-77
2021/04/22 11:08:28;;;;;;;26.15;17.90;;;;;;;;;;5030367;28;20037;-77
2021/04/22 11:10:55;;;;;;;20.45;14.82;;;;;;;;;;5014509;28;20381;-78
2021/04/22 11:13:27;;;;;;;21.58;15.27;;;;;;;;;;5028875;28;20021;-79
2021/04/22 11:15:52;;;;;;;28.88;16.27;;;;;;;;;;5015984;28;20082;-79
2021/04/22 11:18:17;;;;;;;23.73;16.08;;;;;;;;;;5027414;28;20026;-77
2021/04/22 11:20:42;;;;;;;25.50;18.58;;;;;;;;;;5008954;28;20347;-78
2021/04/22 11:23:15;;;;;;;27.33;17.13;;;;;;;;;;5023311;28;20061;-77
2021/04/22 11:25:51;;;;;;;26.00;17.67;;;;;;;;;;5026520;28;20061;-78
2021/04/22 11:28:27;;;;;;;25.60;17.35;;;;;;;;;;5028409;28;20033;-79
2021/04/22 11:30:52;;;;;;;24.27;16.88;;;;;;;;;;5023753;28;20075;-79
2021/04/22 11:33:26;;;;;;;24.90;17.55;;;;;;;;;;5016758;28;20104;-78
2021/04/22 11:35:53;;;;;;;25.58;17.95;;;;;;;;;;5023445;28;20010;-77
2021/04/22 11:38:18;;;;;;;26.40;17.73;;;;;;;;;;5010385;28;20108;-77
2021/04/22 11:40:49;;;;;;;27.88;18.77;;;;;;;;;;5010179;28;20116;-81
2021/04/22 11:43:21;;;;;;;24.63;17.65;;;;;;;;;;5022774;28;20021;-79
2021/04/22 11:45:47;;;;;;;30.33;18.65;;;;;;;;;;5029899;28;20025;-81
2021/04/22 11:48:12;;;;;;;31.17;20.60;;;;;;;;;;5023479;28;20414;-79
2021/04/22 11:50:39;;;;;;;33.33;19.23;;;;;;;;;;5017213;28;20022;-81
2021/04/22 11:53:05;;;;;;;29.27;18.15;;;;;;;;;;5013165;28;20037;-81
2021/04/22 11:55:32;;;;;;;27.63;19.00;;;;;;;;;;5009825;28;20026;-80
2021/04/22 11:57:57;;;;;;;27.52;18.63;;;;;;;;;;5009068;28;20373;-78
2021/04/22 12:00:25;;;;;;;30.80;20.50;;;;;;;;;;5008207;28;20029;-80
2021/04/22 12:02:50;;;;;;;29.08;19.13;;;;;;;;;;5031246;28;20032;-79
2021/04/22 12:05:16;;;;;;;31.40;19.48;;;;;;;;;;5021211;28;20022;-79
2021/04/22 12:07:41;;;;;;;33.15;20.55;;;;;;;;;;5009901;28;20109;-83
2021/04/22 12:10:08;;;;;;;29.13;18.25;;;;;;;;;;4995752;28;20014;-81
2021/04/22 12:12:34;;;;;;;31.65;22.52;;;;;;;;;;5004607;28;20030;-81
2021/04/22 12:14:59;;;;;;;30.33;20.23;;;;;;;;;;5017019;28;20078;-82
2021/04/22 12:17:32;;;;;;;33.40;21.52;;;;;;;;;;5025557;28;20026;-83
2021/04/22 12:20:01;;;;;;;30.95;19.95;;;;;;;;;;5009795;28;20014;-82
2021/04/22 12:22:34;;;;;;;30.90;18.88;;;;;;;;;;5010375;28;20029;-83
2021/04/22 12:25:00;;;;;;;30.38;20.27;;;;;;;;;;5020448;28;20460;-82
2021/04/22 12:27:36;;;;;;;30.65;18.98;;;;;;;;;;5017284;28;20080;-82
2021/04/22 12:30:13;;;;;;;29.70;18.58;;;;;;;;;;5018086;28;20018;-84
2021/04/22 12:32:38;;;;;;;29.13;19.77;;;;;;;;;;5014682;28;20033;-82
2021/04/22 12:35:03;;;;;;;28.13;17.00;;;;;;;;;;5013128;28;20540;-83
2021/04/22 12:37:29;;;;;;;29.83;19.83;;;;;;;;;;5006644;28;20173;-84
2021/04/22 12:39:58;;;;;;;28.98;17.90;;;;;;;;;;5012599;28;20508;-82
2021/04/22 12:42:30;;;;;;;31.90;19.37;;;;;;;;;;4995160;28;20024;-85
2021/04/22 12:44:58;;;;;;;30.30;20.00;;;;;;;;;;5015907;28;20018;-87
2021/04/22 12:47:35;;;;;;;31.88;19.40;;;;;;;;;;5013323;28;20078;-84
2021/04/22 12:50:01;;;;;;;28.48;18.70;;;;;;;;;;5006497;28;20022;-85
2021/04/22 12:52:27;;;;;;;26.52;17.52;;;;;;;;;;4993511;28;20025;-85
2021/04/22 12:55:00;;;;;;;24.40;16.55;;;;;;;;;;4997984;28;20125;-82
2021/04/22 12:57:26;;;;;;;26.92;17.40;;;;;;;;;;4996309;28;20112;-83
2021/04/22 12:59:52;;;;;;;27.95;17.38;;;;;;;;;;5004295;28;20148;-83
2021/04/22 13:02:18;;;;;;;29.60;17.42;;;;;;;;;;5013082;28;20486;-81
2021/04/22 13:05:14;;;;;;;26.00;17.98;;;;;;;;;;5018571;28;20049;-82
2021/04/22 13:07:40;;;;;;;29.27;18.17;;;;;;;;;;4920122;29;20055;-82
2021/04/22 13:10:10;;;;;;;27.73;17.52;;;;;;;;;;4927351;29;20073;-81
2021/04/22 13:12:37;;;;;;;27.35;16.17;;;;;;;;;;4918859;29;20062;-81
2021/04/22 13:15:04;;;;;;;30.10;17.77;;;;;;;;;;4920343;29;20146;-83
2021/04/22 13:17:29;;;;;;;27.23;17.20;;;;;;;;;;4914391;29;20395;-81
2021/04/22 13:19:54;;;;;;;25.20;17.30;;;;;;;;;;4910987;29;20032;-83
2021/04/22 13:22:19;;;;;;;27.13;17.38;;;;;;;;;;4932577;29;20044;-83
2021/04/22 13:24:45;;;;;;;25.60;15.27;;;;;;;;;;4971921;28;20055;-82
2021/04/22 13:27:11;;;;;;;23.77;14.20;;;;;;;;;;4919750;29;20132;-82
2021/04/22 13:29:44;;;;;;;21.98;14.43;;;;;;;;;;4929109;29;20027;-82
2021/04/22 13:32:09;;;;;;;23.83;15.63;;;;;;;;;;4930670;29;20032;-82
2021/04/22 13:34:39;;;;;;;23.05;15.13;;;;;;;;;;4913215;29;20067;-81
2021/04/22 13:37:04;;;;;;;19.15;12.30;;;;;;;;;;4910794;29;20056;-83
2021/04/22 13:39:31;;;;;;;17.98;12.52;;;;;;;;;;4901958;29;20476;-83
2021/04/22 13:41:56;;;;;;;20.73;13.05;;;;;;;;;;4932046;29;20079;-82
2021/04/22 13:44:24;;;;;;;21.35;12.82;;;;;;;;;;4982612;28;20131;-82
2021/04/22 13:47:00;;;;;;;21.58;10.20;;;;;;;;;;5009270;28;20037;-82
2021/04/22 13:49:29;;;;;;;16.88;11.02;;;;;;;;;;5039509;28;20021;-82
2021/04/22 13:52:03;;;;;;;14.38;9.43;;;;;;;;;;5035907;28;20021;-82
2021/04/22 13:54:30;;;;;;;13.35;8.60;;;;;;;;;;5030475;28;20037;-84
2021/04/22 13:56:56;;;;;;;15.95;8.82;;;;;;;;;;5028978;28;20120;-82
2021/04/22 13:59:25;;;;;;;12.30;7.80;;;;;;;;;;5013082;28;20394;-83
2021/04/22 14:01:57;;;;;;;16.10;9.27;;;;;;;;;;5024770;28;20020;-82
2021/04/22 14:04:22;;;;;;;16.20;9.38;;;;;;;;;;5025874;28;20032;-81
2021/04/22 14:06:49;;;;;;;15.60;9.13;;;;;;;;;;5019137;28;20030;-82
2021/04/22 14:09:14;;;;;;;17.40;10.38;;;;;;;;;;5007691;28;20092;-79
2021/04/22 14:11:39;;;;;;;16.42;10.30;;;;;;;;;;5016084;28;20026;-80
2021/04/22 14:14:05;;;;;;;18.23;11.40;;;;;;;;;;5014624;28;20424;-80
2021/04/22 14:16:30;;;;;;;13.73;9.30;;;;;;;;;;5015593;28;20022;-80